Time;durP1;ratioP1;P1;durP2;ratioP2;P2;SDS_P1;SDS_P2;PMS_P1;PMS_P2;Temp;Humidity;BMP_temperature;BMP_pressure;BME280_temperature;BME280_humidity;BME280_pressure;Samples;Min_cycle;Max_cycle;Signal;HPM_P1;HPM_P2
2021/10/28 00:14:00;;;;;;;24.77;13.80;;;7.30;99.90;;;;;;5066337;28;20367;-55
2021/10/28 00:16:29;;;;;;;25.00;13.73;;;7.30;99.90;;;;;;5068729;28;20411;-56
2021/10/28 00:19:01;;;;;;;27.58;14.52;;;7.20;99.90;;;;;;5069369;28;20392;-56
2021/10/28 00:21:30;;;;;;;27.15;15.70;;;7.10;99.90;;;;;;5068904;28;20401;-56
2021/10/28 00:24:01;;;;;;;24.30;13.63;;;7.10;99.90;;;;;;5069511;28;20392;-55
2021/10/28 00:26:28;;;;;;;23.88;14.23;;;7.10;99.90;;;;;;5068741;28;20399;-56
2021/10/28 00:28:58;;;;;;;28.02;15.05;;;7.10;99.90;;;;;;5069449;28;20384;-56
2021/10/28 00:31:25;;;;;;;26.02;14.38;;;7.10;99.90;;;;;;5068635;28;20419;-56
2021/10/28 00:33:51;;;;;;;23.95;13.93;;;7.10;99.90;;;;;;5069069;28;20486;-55
2021/10/28 00:36:17;;;;;;;25.30;13.95;;;7.00;99.90;;;;;;5069023;28;20435;-57
2021/10/28 00:38:43;;;;;;;23.45;13.55;;;6.80;99.90;;;;;;5068632;28;20897;-56
2021/10/28 00:41:09;;;;;;;36.23;17.73;;;6.90;99.90;;;;;;5067983;28;20399;-55
2021/10/28 00:43:45;;;;;;;31.83;18.48;;;6.80;99.90;;;;;;5068943;28;20426;-56
2021/10/28 00:46:15;;;;;;;36.03;19.25;;;6.90;99.90;;;;;;5069436;28;20851;-55
2021/10/28 00:48:41;;;;;;;30.58;17.60;;;6.90;99.90;;;;;;5055167;28;20376;-55
2021/10/28 00:51:07;;;;;;;31.35;17.08;;;6.90;99.90;;;;;;5068882;28;20755;-55
2021/10/28 00:53:34;;;;;;;36.65;18.85;;;6.90;99.90;;;;;;5049746;28;20369;-55
2021/10/28 00:55:59;;;;;;;38.97;20.15;;;6.90;99.90;;;;;;5068962;28;20488;-56
2021/10/28 00:58:26;;;;;;;41.58;22.80;;;7.00;99.90;;;;;;5067268;28;20395;-56
2021/10/28 01:00:52;;;;;;;44.65;23.35;;;7.00;99.90;;;;;;5067880;28;20387;-56
2021/10/28 01:03:19;;;;;;;42.88;24.00;;;7.10;99.90;;;;;;5068739;28;20855;-57
2021/10/28 01:05:45;;;;;;;42.10;23.73;;;5.80;99.90;;;;;;5068506;28;20392;-55
2021/10/28 01:08:16;;;;;;;46.03;23.05;;;6.90;99.90;;;;;;5068863;28;20384;-55
2021/10/28 01:10:44;;;;;;;46.40;24.85;;;7.10;99.90;;;;;;5068463;28;20465;-55
2021/10/28 01:13:10;;;;;;;47.10;25.25;;;6.90;99.90;;;;;;5069050;28;20414;-56
2021/10/28 01:15:36;;;;;;;45.50;24.83;;;6.80;99.90;;;;;;5068382;28;20407;-56
2021/10/28 01:18:07;;;;;;;46.72;23.92;;;6.80;99.90;;;;;;5069122;28;20498;-56
2021/10/28 01:20:33;;;;;;;53.92;24.02;;;6.70;99.90;;;;;;5068370;28;20410;-56
2021/10/28 01:22:59;;;;;;;46.30;23.80;;;7.30;99.90;;;;;;5068912;28;20376;-56
2021/10/28 01:25:24;;;;;;;50.10;25.13;;;6.60;99.90;;;;;;5068077;28;20396;-56
2021/10/28 01:27:50;;;;;;;47.90;24.73;;;6.70;99.90;;;;;;5069026;28;20438;-55
2021/10/28 01:30:16;;;;;;;48.45;24.77;;;6.70;99.90;;;;;;5069167;28;20383;-56
2021/10/28 01:32:41;;;;;;;45.70;24.30;;;6.70;99.90;;;;;;5068121;28;20727;-56
2021/10/28 01:35:07;;;;;;;46.53;25.35;;;6.70;99.90;;;;;;5068815;28;20391;-56
2021/10/28 01:37:33;;;;;;;50.65;24.70;;;6.80;99.90;;;;;;5067964;28;20395;-56
2021/10/28 01:39:59;;;;;;;49.60;24.67;;;6.70;99.90;;;;;;5068555;28;20395;-56
2021/10/28 01:42:25;;;;;;;47.28;23.98;;;6.70;99.90;;;;;;5068050;28;20406;-55
2021/10/28 01:44:50;;;;;;;48.78;23.75;;;6.50;99.90;;;;;;5068742;28;20380;-56
2021/10/28 01:47:16;;;;;;;41.33;23.77;;;6.50;99.90;;;;;;5072298;28;20394;-56
2021/10/28 01:49:42;;;;;;;47.00;23.52;;;6.40;99.90;;;;;;5071968;28;20383;-56
2021/10/28 01:52:11;;;;;;;45.90;24.00;;;6.50;99.90;;;;;;5072752;28;20462;-56
2021/10/28 01:54:37;;;;;;;49.83;24.63;;;6.50;99.90;;;;;;5070057;28;20415;-55
2021/10/28 01:57:03;;;;;;;45.90;23.00;;;6.40;99.90;;;;;;5072246;28;20484;-55
2021/10/28 01:59:29;;;;;;;43.03;22.85;;;6.50;99.90;;;;;;5055843;28;20389;-56
2021/10/28 02:01:55;;;;;;;45.27;23.17;;;6.60;99.90;;;;;;5065323;28;20511;-56
2021/10/28 02:04:22;;;;;;;46.55;22.92;;;6.60;99.90;;;;;;5070174;28;20525;-57
2021/10/28 02:06:49;;;;;;;43.70;21.30;;;6.50;99.90;;;;;;5072485;28;20471;-56
2021/10/28 02:09:16;;;;;;;41.22;21.17;;;6.50;99.90;;;;;;5072095;28;20398;-56
2021/10/28 02:11:42;;;;;;;42.08;22.02;;;6.50;99.90;;;;;;5071452;28;20442;-55
2021/10/28 02:14:07;;;;;;;43.40;21.80;;;6.30;99.90;;;;;;5072051;28;20383;-56
2021/10/28 02:16:34;;;;;;;37.80;21.35;;;6.20;99.90;;;;;;5070178;28;20403;-56
2021/10/28 02:19:01;;;;;;;39.47;20.47;;;6.20;99.90;;;;;;5072061;28;20406;-55
2021/10/28 02:21:27;;;;;;;41.00;21.60;;;6.20;99.90;;;;;;5071086;28;20375;-56
2021/10/28 02:23:54;;;;;;;38.72;21.17;;;6.10;99.90;;;;;;5070400;28;20384;-55
2021/10/28 02:26:21;;;;;;;46.15;22.13;;;6.10;99.90;;;;;;5071915;28;20376;-56
2021/10/28 02:28:47;;;;;;;42.28;21.77;;;6.20;99.90;;;;;;5071404;28;20387;-55
2021/10/28 02:31:13;;;;;;;45.63;23.80;;;6.20;99.90;;;;;;5071707;28;20510;-55
2021/10/28 02:33:39;;;;;;;43.95;22.60;;;6.20;99.90;;;;;;5069743;28;20471;-56
2021/10/28 02:36:05;;;;;;;48.50;22.77;;;6.10;99.90;;;;;;5071610;28;20951;-56
2021/10/28 02:38:31;;;;;;;42.07;21.10;;;6.10;99.90;;;;;;5070795;28;20816;-55
2021/10/28 02:40:57;;;;;;;43.88;22.05;;;6.10;99.90;;;;;;5071354;28;20383;-55
2021/10/28 02:43:22;;;;;;;42.55;22.40;;;7.20;99.90;;;;;;5071257;28;20414;-57
2021/10/28 02:45:48;;;;;;;42.42;22.50;;;6.10;99.90;;;;;;5071373;28;20379;-55
2021/10/28 02:48:14;;;;;;;42.90;21.90;;;6.10;99.90;;;;;;5071602;28;20380;-55
2021/10/28 02:50:40;;;;;;;51.00;22.80;;;6.10;99.90;;;;;;5070495;28;20930;-56
2021/10/28 02:53:06;;;;;;;44.50;21.85;;;6.10;99.90;;;;;;5071638;28;20403;-55
2021/10/28 02:55:31;;;;;;;41.10;21.40;;;6.00;99.90;;;;;;5070128;28;20878;-55
2021/10/28 02:57:57;;;;;;;45.50;22.30;;;6.00;99.90;;;;;;5070707;28;20792;-56
2021/10/28 03:00:22;;;;;;;44.70;21.70;;;6.00;99.90;;;;;;5071004;28;20384;-57
2021/10/28 03:02:48;;;;;;;50.03;24.45;;;5.90;99.90;;;;;;5070802;28;20425;-56
2021/10/28 03:05:14;;;;;;;46.70;23.03;;;6.00;99.90;;;;;;5070163;28;20735;-56
2021/10/28 03:07:40;;;;;;;45.35;23.27;;;6.00;99.90;;;;;;5070037;28;20396;-56
2021/10/28 03:10:07;;;;;;;49.05;25.23;;;6.00;99.90;;;;;;5070625;28;20408;-56
2021/10/28 03:12:36;;;;;;;49.42;23.85;;;6.00;99.90;;;;;;5070102;28;20731;-55
2021/10/28 03:15:04;;;;;;;47.10;22.90;;;6.10;99.90;;;;;;5071394;28;20406;-56
2021/10/28 03:17:38;;;;;;;45.60;22.63;;;6.10;99.90;;;;;;5068817;28;20470;-56
2021/10/28 03:27:47;;;;;;;47.55;23.60;;;6.00;99.90;;;;;;5058416;28;20386;-55
2021/10/28 03:30:13;;;;;;;47.20;24.17;;;6.00;99.90;;;;;;5066841;28;20929;-56
2021/10/28 03:32:39;;;;;;;51.50;23.63;;;6.00;99.90;;;;;;5056711;28;20421;-55
2021/10/28 03:35:09;;;;;;;51.15;24.83;;;5.90;99.90;;;;;;5070555;28;20502;-55
2021/10/28 03:43:18;;;;;;;51.35;24.20;;;6.00;99.90;;;;;;5070150;28;20742;-56
2021/10/28 03:57:31;;;;;;;57.13;26.25;;;5.90;99.90;;;;;;5031201;28;20412;-55
2021/10/28 04:00:12;;;;;;;57.92;26.73;;;5.80;99.90;;;;;;5062767;28;20476;-55
2021/10/28 04:05:40;;;;;;;56.25;26.20;;;5.70;99.90;;;;;;5070080;28;20375;-55
2021/10/28 04:19:03;;;;;;;50.93;24.63;;;5.70;99.90;;;;;;5068927;28;20391;-55
2021/10/28 04:28:54;;;;;;;63.95;29.10;;;5.90;99.90;;;;;;5027154;28;20457;-55
2021/10/28 04:29:52;;;;;;;55.28;25.35;;;5.80;99.90;;;;;;5053033;28;20738;-55
2021/10/28 04:32:18;;;;;;;52.40;25.02;;;5.80;99.90;;;;;;5058260;28;20445;-55
2021/10/28 04:34:44;;;;;;;49.43;23.27;;;5.70;99.90;;;;;;5057726;28;20416;-55
2021/10/28 04:37:10;;;;;;;55.40;25.35;;;5.60;99.90;;;;;;5051194;28;20524;-55
2021/10/28 04:39:37;;;;;;;50.00;24.33;;;5.60;99.90;;;;;;5066145;28;20407;-56
2021/10/28 04:42:03;;;;;;;52.00;24.30;;;5.50;99.90;;;;;;5069455;28;20388;-56
2021/10/28 04:44:29;;;;;;;57.50;26.85;;;5.60;99.90;;;;;;5068623;28;20372;-55
2021/10/28 04:46:55;;;;;;;52.20;25.08;;;5.50;99.90;;;;;;5069381;28;20886;-55
2021/10/28 04:49:20;;;;;;;50.03;24.47;;;5.50;99.90;;;;;;5069425;28;20856;-55
2021/10/28 04:51:46;;;;;;;49.30;23.98;;;5.50;99.90;;;;;;5068156;28;20930;-55
2021/10/28 04:54:12;;;;;;;63.75;26.27;;;5.50;99.90;;;;;;5061595;28;20407;-55
2021/10/28 04:56:38;;;;;;;62.73;26.67;;;5.50;99.90;;;;;;5059350;28;20422;-55
2021/10/28 04:59:03;;;;;;;55.70;24.80;;;5.50;99.90;;;;;;5058633;28;20381;-55
2021/10/28 05:01:29;;;;;;;52.70;25.73;;;5.60;99.90;;;;;;5049965;28;20745;-56
2021/10/28 05:03:55;;;;;;;51.20;24.92;;;5.50;99.90;;;;;;5059666;28;20411;-55
2021/10/28 05:06:21;;;;;;;53.60;25.73;;;7.00;99.90;;;;;;5068285;28;20878;-55
2021/10/28 05:08:47;;;;;;;54.38;25.80;;;5.70;99.90;;;;;;5068221;28;20474;-56
2021/10/28 05:11:19;;;;;;;52.65;24.90;;;5.80;99.90;;;;;;5060314;28;20494;-55
2021/10/28 05:13:45;;;;;;;52.22;26.20;;;5.90;99.90;;;;;;5036989;28;20863;-55
2021/10/28 05:16:11;;;;;;;47.75;25.17;;;6.00;99.90;;;;;;5047717;28;20488;-56
2021/10/28 05:18:40;;;;;;;45.60;23.70;;;6.20;99.90;;;;;;5028377;28;20490;-56
2021/10/28 05:21:09;;;;;;;48.30;24.52;;;6.30;99.90;;;;;;5041057;28;20456;-56
2021/10/28 05:23:36;;;;;;;50.10;24.83;;;6.40;99.90;;;;;;5054697;28;20405;-56
2021/10/28 05:26:03;;;;;;;47.00;23.77;;;6.60;99.90;;;;;;5053785;28;20744;-56
2021/10/28 05:28:28;;;;;;;47.85;26.05;;;6.70;99.90;;;;;;5054476;28;20472;-57
2021/10/28 05:30:54;;;;;;;46.07;25.60;;;6.80;99.90;;;;;;5055286;28;20484;-56
2021/10/28 05:33:20;;;;;;;48.88;26.83;;;6.80;99.90;;;;;;5055178;28;20384;-56
2021/10/28 05:35:46;;;;;;;48.15;24.85;;;6.70;99.90;;;;;;5054260;28;20405;-55
2021/10/28 05:38:12;;;;;;;52.00;26.97;;;6.60;99.90;;;;;;5048771;28;20430;-56
2021/10/28 05:40:37;;;;;;;49.85;27.23;;;6.60;99.90;;;;;;5041201;28;20437;-56
2021/10/28 05:43:03;;;;;;;51.00;26.77;;;6.60;99.90;;;;;;5047596;28;20386;-56
2021/10/28 05:45:31;;;;;;;51.03;27.00;;;6.60;99.90;;;;;;5034928;28;20387;-56
2021/10/28 05:47:57;;;;;;;50.63;25.88;;;6.60;99.90;;;;;;5042584;28;20389;-55
2021/10/28 05:50:24;;;;;;;50.63;25.40;;;6.80;99.90;;;;;;5044813;28;20394;-56
2021/10/28 05:52:52;;;;;;;47.90;24.30;;;6.80;99.90;;;;;;5043989;28;20400;-56
2021/10/28 05:55:20;;;;;;;43.38;22.65;;;6.90;99.90;;;;;;5055381;28;20409;-55
2021/10/28 05:57:47;;;;;;;49.13;24.25;;;6.90;99.90;;;;;;5040330;28;20494;-55
2021/10/28 06:00:13;;;;;;;41.42;21.50;;;6.90;99.90;;;;;;5035818;28;20377;-56
2021/10/28 06:02:39;;;;;;;47.08;22.80;;;6.80;99.90;;;;;;5033734;28;20405;-56
2021/10/28 06:05:06;;;;;;;44.17;22.40;;;6.60;99.90;;;;;;5039322;28;20403;-55
2021/10/28 06:07:32;;;;;;;43.33;22.45;;;6.50;99.90;;;;;;5054226;28;20389;-56
2021/10/28 06:09:58;;;;;;;52.42;23.58;;;6.40;99.90;;;;;;5055161;28;20393;-56
2021/10/28 06:12:26;;;;;;;50.63;23.50;;;6.30;99.90;;;;;;5056029;28;20468;-56
2021/10/28 06:14:51;;;;;;;55.93;23.10;;;6.10;99.90;;;;;;5054457;28;20453;-56
2021/10/28 06:17:19;;;;;;;47.60;22.70;;;6.10;99.90;;;;;;5048650;28;20433;-56
2021/10/28 06:19:44;;;;;;;55.00;24.25;;;6.20;99.90;;;;;;5051994;28;20373;-56
2021/10/28 06:22:12;;;;;;;52.83;24.08;;;6.80;99.90;;;;;;5039816;28;20414;-56
2021/10/28 06:24:37;;;;;;;51.07;22.80;;;6.20;99.90;;;;;;5052862;28;20431;-56
2021/10/28 06:27:03;;;;;;;61.10;24.55;;;6.10;99.90;;;;;;5054549;28;20385;-56
2021/10/28 06:29:29;;;;;;;58.97;25.63;;;6.00;99.90;;;;;;5054196;28;20393;-57
2021/10/28 06:31:56;;;;;;;57.20;25.13;;;5.90;99.90;;;;;;5046331;28;20410;-56
2021/10/28 06:34:24;;;;;;;63.10;26.15;;;6.00;99.90;;;;;;5050695;28;20388;-56
2021/10/28 06:36:50;;;;;;;59.20;25.45;;;6.10;99.90;;;;;;5049618;28;20485;-56
2021/10/28 06:39:17;;;;;;;56.65;24.60;;;6.10;99.90;;;;;;5037225;28;20438;-56
2021/10/28 06:41:43;;;;;;;55.97;25.55;;;6.20;99.90;;;;;;5033767;28;20508;-56
2021/10/28 06:44:08;;;;;;;59.70;25.20;;;6.40;99.90;;;;;;5051585;28;20385;-56
2021/10/28 06:46:35;;;;;;;52.13;25.15;;;6.40;99.90;;;;;;5050877;28;20396;-57
2021/10/28 06:49:04;;;;;;;56.47;25.67;;;6.40;99.90;;;;;;5050892;28;20398;-56
2021/10/28 06:51:35;;;;;;;70.65;26.45;;;6.50;99.90;;;;;;5050678;28;20374;-57
2021/10/28 06:54:16;;;;;;;57.65;26.23;;;6.60;99.90;;;;;;5050212;28;20896;-55
2021/10/28 07:04:39;;;;;;;53.40;23.85;;;6.90;99.90;;;;;;5050411;28;20468;-56
2021/10/28 07:07:05;;;;;;;47.43;23.70;;;6.90;99.90;;;;;;5050542;28;20776;-56
2021/10/28 07:09:36;;;;;;;49.65;24.83;;;7.10;99.90;;;;;;5049768;28;20394;-57
2021/10/28 07:14:31;;;;;;;50.40;23.50;;;7.20;99.90;;;;;;5040083;28;20385;-57
2021/10/28 07:17:05;;;;;;;51.42;22.67;;;7.20;99.90;;;;;;5047907;28;20421;-56
2021/10/28 07:57:35;;;;;;;24.60;15.10;;;13.30;99.90;;;;;;5041777;28;20450;-57
2021/10/28 08:05:47;;;;;;;22.95;15.40;;;15.60;99.90;;;;;;5047303;28;20407;-56
2021/10/28 08:24:04;;;;;;;21.52;14.65;;;16.30;99.90;;;;;;5049042;28;20377;-56
2021/10/28 08:31:44;;;;;;;21.05;14.77;;;17.60;99.90;;;;;;5048497;28;20746;-57
2021/10/28 08:34:10;;;;;;;21.77;14.80;;;17.80;99.90;;;;;;5047287;28;20381;-56
2021/10/28 08:36:39;;;;;;;21.57;15.07;;;17.50;99.90;;;;;;5038346;28;20414;-57
2021/10/28 08:39:07;;;;;;;21.50;16.45;;;17.50;99.90;;;;;;5075987;28;20406;-57
2021/10/28 08:41:35;;;;;;;21.60;14.95;;;17.00;99.90;;;;;;5043483;28;20885;-57
2021/10/28 08:44:10;;;;;;;22.07;15.00;;;16.20;99.90;;;;;;5042168;28;20385;-55
2021/10/28 08:46:36;;;;;;;22.55;15.48;;;14.90;99.90;;;;;;5044029;28;20405;-55
2021/10/28 08:49:05;;;;;;;21.73;14.38;;;14.10;99.90;;;;;;5045896;28;20413;-56
2021/10/28 08:51:53;;;;;;;17.65;13.07;;;13.70;99.90;;;;;;5046769;28;20393;-57
2021/10/28 09:19:46;;;;;;;20.35;14.98;;;17.20;99.90;;;;;;5049179;28;20435;-57
2021/10/28 09:25:10;;;;;;;20.45;17.83;;;18.70;99.90;;;;;;5047516;28;20381;-58
2021/10/28 09:27:46;;;;;;;21.20;17.40;;;18.80;99.90;;;;;;5047934;28;20388;-57
2021/10/28 09:30:30;;;;;;;21.43;17.63;;;18.30;99.90;;;;;;5048786;28;20377;-57
2021/10/28 09:33:12;;;;;;;21.05;18.85;;;18.90;99.90;;;;;;5048489;28;20465;-57
2021/10/28 09:44:36;;;;;;;22.30;19.33;;;20.70;96.30;;;;;;5061560;28;20377;-57
2021/10/28 09:47:22;;;;;;;20.83;18.63;;;21.20;95.30;;;;;;5048624;28;20400;-57
2021/10/28 09:50:11;;;;;;;22.52;20.00;;;21.30;94.10;;;;;;5047642;28;20389;-58
2021/10/28 09:52:48;;;;;;;23.23;20.83;;;21.70;92.80;;;;;;5047791;28;20466;-57
2021/10/28 09:58:28;;;;;;;19.25;13.90;;;22.00;90.90;;;;;;5048536;28;20435;-57
2021/10/28 10:00:55;;;;;;;19.42;14.70;;;22.10;90.50;;;;;;5047602;28;20389;-57
2021/10/28 10:03:35;;;;;;;20.25;15.23;;;22.20;89.50;;;;;;5048282;28;20378;-59
2021/10/28 10:06:06;;;;;;;24.40;15.52;;;21.60;90.30;;;;;;5048835;28;20527;-58
2021/10/28 10:08:33;;;;;;;23.42;20.92;;;21.10;90.20;;;;;;5051682;28;20393;-60
2021/10/28 10:10:59;;;;;;;23.20;20.80;;;20.50;91.50;;;;;;5051845;28;20424;-57
2021/10/28 10:13:27;;;;;;;21.55;15.50;;;21.20;91.00;;;;;;5052411;28;20378;-58
2021/10/28 10:15:57;;;;;;;19.35;15.50;;;21.00;90.70;;;;;;5051383;28;20412;-57
2021/10/28 10:18:25;;;;;;;23.20;19.80;;;21.00;90.30;;;;;;5052735;28;20388;-58
2021/10/28 10:20:59;;;;;;;21.63;18.40;;;20.70;91.60;;;;;;5051753;28;20386;-57
2021/10/28 13:03:33;;;;;;;26.83;18.02;;;18.90;97.70;;;;;;5048179;28;20384;-56
2021/10/28 13:36:17;;;;;;;23.80;16.67;;;18.50;97.60;;;;;;5047970;28;21066;-57
2021/10/28 15:03:08;;;;;;;26.23;19.83;;;17.30;99.90;;;;;;5049582;28;20435;-58
2021/10/28 15:35:38;;;;;;;27.33;18.75;;;16.30;99.90;;;;;;5050307;28;20409;-57
2021/10/28 15:52:06;;;;;;;29.70;19.45;;;16.00;99.90;;;;;;5050212;28;20373;-58
2021/10/28 15:57:13;;;;;;;29.17;18.02;;;15.80;99.90;;;;;;5038358;28;20902;-58
2021/10/28 16:24:07;;;;;;;30.85;17.60;;;14.20;99.90;;;;;;5049374;28;20454;-58
2021/10/28 16:26:33;;;;;;;33.55;18.98;;;14.10;99.90;;;;;;5049348;28;20891;-58
2021/10/28 16:29:01;;;;;;;32.63;19.08;;;13.90;99.90;;;;;;5049210;28;20382;-57
2021/10/28 16:31:27;;;;;;;31.35;18.83;;;13.70;99.90;;;;;;5049083;28;20380;-58
2021/10/28 16:33:53;;;;;;;46.72;23.77;;;13.60;99.90;;;;;;5048141;28;20839;-58
2021/10/28 16:36:21;;;;;;;96.50;48.77;;;13.60;99.90;;;;;;5049502;28;20524;-56
2021/10/28 16:38:47;;;;;;;376.70;151.55;;;13.40;99.90;;;;;;5048896;28;20451;-56
2021/10/28 16:41:13;;;;;;;40.33;21.50;;;13.40;99.90;;;;;;5049233;28;20378;-56
2021/10/28 16:43:39;;;;;;;135.77;52.95;;;13.20;99.90;;;;;;5048759;28;20377;-58
2021/10/28 16:46:05;;;;;;;140.90;63.47;;;13.00;99.90;;;;;;5048386;28;20407;-56
2021/10/28 16:48:30;;;;;;;310.63;114.75;;;12.90;99.90;;;;;;5048864;28;20426;-55
2021/10/28 16:50:56;;;;;;;75.17;36.13;;;12.80;99.90;;;;;;5048044;28;20737;-56
2021/10/28 16:53:22;;;;;;;37.20;21.52;;;12.70;99.90;;;;;;5048681;28;20733;-55
2021/10/28 16:55:48;;;;;;;764.77;357.23;;;12.60;99.90;;;;;;5047534;28;20413;-56
2021/10/28 16:58:14;;;;;;;34.90;19.42;;;12.60;99.90;;;;;;5029000;28;20390;-56
2021/10/28 17:00:40;;;;;;;32.10;17.77;;;12.40;99.90;;;;;;5028547;28;20743;-58
2021/10/28 17:03:06;;;;;;;39.73;17.03;;;12.20;99.90;;;;;;5027345;28;20391;-56
2021/10/28 17:05:32;;;;;;;32.22;18.60;;;11.90;99.90;;;;;;5028788;28;20465;-56
2021/10/28 17:07:57;;;;;;;31.23;18.10;;;11.80;99.90;;;;;;5028425;28;20480;-56
2021/10/28 17:10:23;;;;;;;37.77;18.53;;;11.60;99.90;;;;;;5029206;28;20937;-56
2021/10/28 17:12:49;;;;;;;38.55;19.52;;;11.60;99.90;;;;;;5028357;28;20389;-56
2021/10/28 17:15:15;;;;;;;41.47;19.10;;;11.50;99.90;;;;;;5029108;28;20490;-56
2021/10/28 17:17:41;;;;;;;82.82;34.85;;;11.50;99.90;;;;;;5027269;28;20391;-58
2021/10/28 17:20:08;;;;;;;96.38;37.88;;;11.50;99.90;;;;;;5028616;28;20391;-56
2021/10/28 17:22:36;;;;;;;35.72;19.48;;;11.50;99.90;;;;;;5029078;28;20388;-56
2021/10/28 17:25:05;;;;;;;35.40;19.08;;;11.40;99.90;;;;;;5028163;28;20415;-56
2021/10/28 17:27:30;;;;;;;35.08;20.45;;;11.30;99.90;;;;;;5028892;28;20379;-56
2021/10/28 17:29:57;;;;;;;42.07;20.03;;;11.20;99.90;;;;;;5028567;28;20402;-56
2021/10/28 17:32:22;;;;;;;36.25;19.63;;;11.10;99.90;;;;;;5029072;28;20390;-57
2021/10/28 17:34:48;;;;;;;144.00;68.55;;;11.10;99.90;;;;;;5027757;28;20384;-57
2021/10/28 17:37:14;;;;;;;1489.43;652.43;;;11.00;99.90;;;;;;5027051;28;20423;-57
2021/10/28 17:39:39;;;;;;;334.05;174.32;;;11.10;99.90;;;;;;5036505;28;20413;-58
2021/10/28 17:42:05;;;;;;;151.63;92.33;;;11.20;99.90;;;;;;5042461;28;20393;-57
2021/10/28 17:47:27;;;;;;;37.65;21.05;;;11.40;99.90;;;;;;5052001;28;20415;-56
2021/10/28 17:49:55;;;;;;;33.72;16.70;;;11.50;99.90;;;;;;5046375;28;20376;-56
2021/10/28 17:52:21;;;;;;;28.98;16.60;;;11.40;99.90;;;;;;5046652;28;20401;-56
2021/10/28 17:54:47;;;;;;;30.45;19.38;;;11.20;99.90;;;;;;5045375;28;20768;-56
2021/10/28 17:57:14;;;;;;;33.97;19.63;;;11.00;99.90;;;;;;5045395;28;20416;-57
2021/10/28 17:59:42;;;;;;;32.70;18.42;;;10.80;99.90;;;;;;5047686;28;20414;-59
2021/10/28 18:02:07;;;;;;;35.05;18.95;;;10.60;99.90;;;;;;5048023;28;20409;-57
2021/10/28 18:04:33;;;;;;;32.85;18.35;;;10.50;99.90;;;;;;5047785;28;20759;-57
2021/10/28 18:06:59;;;;;;;35.65;19.58;;;10.50;99.90;;;;;;5044843;28;20409;-56
2021/10/28 18:09:26;;;;;;;34.57;19.10;;;10.40;99.90;;;;;;5046978;28;20465;-57
2021/10/28 18:11:54;;;;;;;31.67;17.20;;;10.30;99.90;;;;;;5043259;28;20449;-56
2021/10/28 18:14:21;;;;;;;32.47;17.07;;;10.30;99.90;;;;;;5048029;28;20377;-56
2021/10/28 18:16:46;;;;;;;30.90;17.40;;;10.30;99.90;;;;;;5043883;28;20897;-57
2021/10/28 18:19:12;;;;;;;32.95;17.35;;;10.30;99.90;;;;;;5029625;28;20481;-57
2021/10/28 18:21:42;;;;;;;33.70;19.10;;;10.30;99.90;;;;;;5042805;28;20401;-57
2021/10/28 18:24:08;;;;;;;36.25;20.17;;;10.20;99.90;;;;;;5045637;28;20884;-57
2021/10/28 18:26:34;;;;;;;42.67;25.08;;;10.30;99.90;;;;;;5047523;28;20405;-56
2021/10/28 18:29:00;;;;;;;67.83;42.83;;;10.40;99.90;;;;;;5049709;28;20405;-56
2021/10/28 18:31:27;;;;;;;75.73;50.07;;;10.50;99.90;;;;;;5051458;28;20381;-57
2021/10/28 18:33:54;;;;;;;95.07;66.75;;;10.50;99.90;;;;;;5050654;28;20471;-57
2021/10/28 18:36:19;;;;;;;47.03;30.35;;;10.50;99.90;;;;;;5051431;28;20406;-56
2021/10/28 18:38:46;;;;;;;33.27;18.03;;;10.50;99.90;;;;;;5047407;28;20466;-58
2021/10/28 18:41:17;;;;;;;30.97;16.20;;;10.50;99.90;;;;;;5045849;28;20437;-58
2021/10/28 18:43:43;;;;;;;31.40;17.48;;;10.20;99.90;;;;;;5056027;28;20409;-59
2021/10/28 18:46:09;;;;;;;31.70;17.00;;;10.00;99.90;;;;;;5058714;28;20385;-59
2021/10/28 18:48:35;;;;;;;31.95;18.60;;;9.80;99.90;;;;;;5047492;28;20538;-57
2021/10/28 18:51:01;;;;;;;34.85;19.80;;;9.70;99.90;;;;;;5069595;28;20406;-58
2021/10/28 18:53:28;;;;;;;40.22;22.67;;;9.60;99.90;;;;;;5071922;28;20391;-58
2021/10/28 18:55:55;;;;;;;35.60;19.45;;;9.70;99.90;;;;;;5064296;28;20411;-57
2021/10/28 18:58:21;;;;;;;39.85;21.67;;;9.70;99.90;;;;;;5071020;28;20443;-58
2021/10/28 19:00:51;;;;;;;42.20;21.75;;;9.60;99.90;;;;;;5071027;28;20435;-58
2021/10/28 19:03:18;;;;;;;34.00;18.90;;;9.60;99.90;;;;;;5071749;28;20391;-58
2021/10/28 19:05:44;;;;;;;42.60;23.98;;;9.60;99.90;;;;;;5070842;28;20388;-60
2021/10/28 19:08:10;;;;;;;55.27;28.87;;;9.50;99.90;;;;;;5060727;28;20412;-58
2021/10/28 19:10:36;;;;;;;47.08;26.10;;;9.50;99.90;;;;;;5056704;28;20399;-57
2021/10/28 19:13:02;;;;;;;44.45;25.10;;;9.50;99.90;;;;;;5047494;28;20999;-56
2021/10/28 19:15:28;;;;;;;41.35;23.40;;;9.50;99.90;;;;;;5049542;28;20496;-57
2021/10/28 19:17:54;;;;;;;48.00;26.35;;;9.40;99.90;;;;;;5052192;28;20392;-57
2021/10/28 19:20:20;;;;;;;51.93;28.10;;;9.40;99.90;;;;;;5049441;28;20390;-57
2021/10/28 19:22:46;;;;;;;147.73;65.43;;;9.40;99.90;;;;;;5049070;28;20518;-60
2021/10/28 19:25:12;;;;;;;167.93;83.73;;;9.50;99.90;;;;;;5056301;28;20414;-59
2021/10/28 19:27:38;;;;;;;158.35;82.88;;;9.40;99.90;;;;;;5058444;28;20380;-56
2021/10/28 19:30:42;;;;;;;47.45;25.65;;;9.30;99.90;;;;;;5074202;28;21007;-58
2021/10/28 19:33:07;;;;;;;49.22;27.92;;;10.10;99.90;;;;;;5041110;28;20406;-57
2021/10/28 19:35:34;;;;;;;621.30;316.17;;;9.40;99.90;;;;;;5052626;28;20414;-59
2021/10/28 19:46:11;;;;;;;43.25;26.33;;;9.10;99.90;;;;;;5053505;28;20364;-57
2021/10/28 19:48:39;;;;;;;39.75;21.92;;;9.00;99.90;;;;;;5053722;28;20389;-58
2021/10/28 19:51:06;;;;;;;38.30;21.83;;;9.00;99.90;;;;;;5049267;28;20467;-57
2021/10/28 19:53:32;;;;;;;47.92;27.70;;;9.00;99.90;;;;;;5052183;28;20389;-58
2021/10/28 19:56:08;;;;;;;43.08;25.50;;;9.00;99.90;;;;;;5046599;28;20474;-58
2021/10/28 19:58:37;;;;;;;41.72;22.88;;;9.00;99.90;;;;;;5050003;28;20389;-57
2021/10/28 20:01:10;;;;;;;40.08;22.52;;;8.90;99.90;;;;;;5053331;28;20416;-57
2021/10/28 20:04:08;;;;;;;37.03;21.60;;;8.90;99.90;;;;;;5042344;28;21223;-58
2021/10/28 20:22:39;;;;;;;34.38;19.67;;;9.20;99.90;;;;;;5042523;28;20412;-57
2021/10/28 20:25:07;;;;;;;34.73;19.90;;;9.20;99.90;;;;;;5073551;28;20457;-58
2021/10/28 20:27:33;;;;;;;34.00;21.13;;;9.10;99.90;;;;;;5046065;28;20415;-55
2021/10/28 20:29:58;;;;;;;35.58;20.58;;;9.10;99.90;;;;;;5041035;28;20414;-59
2021/10/28 20:32:25;;;;;;;32.85;20.40;;;9.10;99.90;;;;;;5045601;28;20393;-55
2021/10/28 20:35:11;;;;;;;33.95;20.33;;;9.00;99.90;;;;;;5047753;28;20388;-56
2021/10/28 20:37:38;;;;;;;33.08;20.83;;;9.00;99.90;;;;;;5047962;28;20402;-56
2021/10/28 20:40:05;;;;;;;36.90;21.10;;;9.00;99.90;;;;;;5046728;28;20946;-57
2021/10/28 20:42:39;;;;;;;32.10;20.98;;;9.00;99.90;;;;;;5046036;28;20409;-57
2021/10/28 20:45:10;;;;;;;33.22;20.60;;;9.00;99.90;;;;;;5048180;28;20456;-58
2021/10/28 20:47:38;;;;;;;34.03;20.40;;;8.90;99.90;;;;;;5044239;28;20403;-58
2021/10/28 20:50:05;;;;;;;36.80;21.13;;;8.90;99.90;;;;;;5044501;28;20912;-57
2021/10/28 20:52:33;;;;;;;37.08;20.63;;;8.90;99.90;;;;;;5047839;28;20860;-57
2021/10/28 20:54:59;;;;;;;34.03;20.25;;;8.90;99.90;;;;;;5041962;28;20418;-58
2021/10/28 20:57:24;;;;;;;35.13;19.67;;;8.90;99.90;;;;;;5046262;28;21251;-57
2021/10/28 20:59:50;;;;;;;41.42;20.90;;;8.90;99.90;;;;;;5045533;28;20393;-59
2021/10/28 21:02:16;;;;;;;38.07;19.93;;;8.90;99.90;;;;;;5039955;28;20405;-57
2021/10/28 21:04:41;;;;;;;35.65;19.85;;;8.90;99.90;;;;;;5042473;28;20428;-56
2021/10/28 21:07:07;;;;;;;32.90;19.90;;;9.00;99.90;;;;;;5041570;28;20463;-57
2021/10/28 21:09:33;;;;;;;30.13;19.17;;;9.00;99.90;;;;;;5042224;28;20474;-56
2021/10/28 21:11:59;;;;;;;33.40;19.70;;;9.00;99.90;;;;;;5044233;28;20414;-57
2021/10/28 21:14:24;;;;;;;35.45;19.90;;;9.10;99.90;;;;;;5046925;28;20401;-56
2021/10/28 21:16:50;;;;;;;35.83;19.43;;;9.00;99.90;;;;;;5047394;28;20409;-59
2021/10/28 21:19:16;;;;;;;33.70;19.90;;;8.90;99.90;;;;;;5047652;28;20816;-56
2021/10/28 21:21:43;;;;;;;34.43;20.17;;;8.90;99.90;;;;;;5048826;28;20734;-56
2021/10/28 21:24:10;;;;;;;36.20;19.25;;;8.90;99.90;;;;;;5048285;28;20382;-57
2021/10/28 21:26:37;;;;;;;30.08;19.48;;;8.80;99.90;;;;;;5041409;28;20417;-56
2021/10/28 21:29:04;;;;;;;37.08;20.52;;;8.80;99.90;;;;;;5051114;28;20397;-56
2021/10/28 21:31:30;;;;;;;36.00;20.13;;;8.80;99.90;;;;;;5059643;28;20462;-55
2021/10/28 21:33:56;;;;;;;34.17;19.30;;;8.80;99.90;;;;;;5048300;28;20390;-55
2021/10/28 21:36:22;;;;;;;36.45;20.48;;;8.80;99.90;;;;;;5053203;28;20417;-56
2021/10/28 21:38:49;;;;;;;34.33;20.13;;;8.80;99.90;;;;;;5049475;28;20401;-58
2021/10/28 21:41:15;;;;;;;34.23;20.60;;;8.70;99.90;;;;;;5048592;28;20378;-56